Time;durP1;ratioP1;P1;durP2;ratioP2;P2;SDS_P1;SDS_P2;PMS_P1;PMS_P2;Temp;Humidity;BMP_temperature;BMP_pressure;BME280_temperature;BME280_humidity;BME280_pressure;Samples;Min_cycle;Max_cycle;Signal;HPM_P1;HPM_P2
2021/06/07 00:00:31;;;;;;;8.95;4.50;;;;;;;25.29;43.24;99830.31;4483506;32;34881;-67
2021/06/07 00:02:58;;;;;;;8.18;5.00;;;;;;;25.30;43.26;99840.16;4483510;32;33427;-66
2021/06/07 00:05:26;;;;;;;6.78;4.70;;;;;;;25.29;43.23;99839.31;4483539;32;34929;-67
2021/06/07 00:07:54;;;;;;;7.70;4.60;;;;;;;25.30;43.20;99831.97;4483544;32;33796;-65
2021/06/07 00:10:22;;;;;;;9.57;4.75;;;;;;;25.29;43.25;99843.97;4483565;32;33431;-67
2021/06/07 00:12:49;;;;;;;7.53;4.78;;;;;;;25.28;43.27;99834.09;4483351;32;34108;-65
2021/06/07 00:15:18;;;;;;;7.20;4.28;;;;;;;25.27;43.48;99841.44;4483191;32;33771;-66
2021/06/07 00:17:46;;;;;;;10.23;4.35;;;;;;;25.29;43.43;99838.50;4483264;32;35093;-66
2021/06/07 00:20:21;;;;;;;7.00;4.55;;;;;;;25.29;43.49;99841.22;4483321;32;33829;-67
2021/06/07 00:22:49;;;;;;;12.43;5.20;;;;;;;25.29;43.48;99843.97;4482992;32;32981;-67
2021/06/07 00:25:17;;;;;;;9.27;4.78;;;;;;;25.32;43.58;99846.19;4483137;32;33751;-66
2021/06/07 00:27:52;;;;;;;10.45;5.22;;;;;;;25.31;43.72;99844.53;4483290;32;34930;-63
2021/06/07 00:30:20;;;;;;;7.40;4.30;;;;;;;25.30;43.70;99845.62;4483010;32;33549;-66
2021/06/07 00:32:49;;;;;;;12.10;5.50;;;;;;;25.29;43.75;99850.25;4483198;32;33418;-66
2021/06/07 00:35:19;;;;;;;10.88;5.03;;;;;;;25.28;43.82;99851.31;4482817;32;33891;-65
2021/06/07 00:37:47;;;;;;;10.65;5.10;;;;;;;25.28;44.04;99851.31;4482891;32;34004;-65
2021/06/07 00:40:15;;;;;;;8.55;4.78;;;;;;;25.28;44.07;99847.75;4483620;32;34559;-65
2021/06/07 00:42:43;;;;;;;9.27;4.85;;;;;;;25.28;44.03;99851.31;4485022;31;33384;-66
2021/06/07 00:45:13;;;;;;;8.60;5.22;;;;;;;25.26;44.01;99847.97;4485055;32;34567;-66
2021/06/07 00:47:41;;;;;;;7.43;4.62;;;;;;;25.26;44.00;99847.97;4485108;32;34761;-66
2021/06/07 00:50:11;;;;;;;8.93;5.07;;;;;;;25.28;43.94;99845.03;4483583;32;34902;-67
2021/06/07 00:52:59;;;;;;;8.45;4.90;;;;;;;25.28;43.96;99847.75;4485011;32;34468;-67
2021/06/07 00:55:33;;;;;;;7.78;5.45;;;;;;;25.27;44.03;99835.16;4484771;32;34552;-67
2021/06/07 00:58:00;;;;;;;8.30;4.65;;;;;;;25.27;43.99;99835.97;4483680;32;33834;-66
2021/06/07 01:00:29;;;;;;;6.05;4.80;;;;;;;25.26;43.96;99834.31;4485221;32;33817;-67
2021/06/07 01:02:57;;;;;;;7.50;4.45;;;;;;;25.27;43.95;99835.16;4484800;32;33273;-66
2021/06/07 01:05:43;;;;;;;8.75;4.28;;;;;;;25.26;43.98;99828.03;4484922;32;33849;-67
2021/06/07 01:08:10;;;;;;;7.22;4.45;;;;;;;25.26;43.95;99836.22;4484727;32;33843;-66
2021/06/07 01:10:38;;;;;;;6.87;4.57;;;;;;;25.26;43.94;99842.53;4484877;32;33891;-66
2021/06/07 01:13:06;;;;;;;7.35;4.53;;;;;;;25.25;43.96;99840.87;4485113;32;33309;-66
2021/06/07 01:15:33;;;;;;;5.82;4.43;;;;;;;25.26;44.00;99844.41;4484500;32;33781;-67
2021/06/07 01:18:01;;;;;;;8.00;4.62;;;;;;;25.25;43.94;99835.41;4484863;32;33954;-65
2021/06/07 01:20:29;;;;;;;9.40;5.10;;;;;;;25.25;43.92;99832.66;4483678;32;33841;-66
2021/06/07 01:22:56;;;;;;;7.68;4.57;;;;;;;25.25;43.93;99831.84;4484578;32;33245;-66
2021/06/07 01:25:27;;;;;;;11.20;4.60;;;;;;;25.25;43.90;99831.84;4485085;32;34574;-66
2021/06/07 01:28:16;;;;;;;9.85;4.70;;;;;;;25.24;43.93;99832.91;4484645;32;34736;-66
2021/06/07 01:31:02;;;;;;;13.32;4.87;;;;;;;25.25;43.84;99831.84;4484702;32;34689;-64
2021/06/07 01:33:31;;;;;;;8.82;4.95;;;;;;;25.24;43.87;99828.28;4484550;32;33304;-67
2021/06/07 01:36:17;;;;;;;8.27;4.65;;;;;;;25.23;44.05;99828.50;4483661;32;34715;-67
2021/06/07 01:38:45;;;;;;;8.52;5.07;;;;;;;25.23;43.92;99834.81;4484569;32;34007;-66
2021/06/07 01:41:14;;;;;;;7.32;4.60;;;;;;;25.22;44.07;99830.41;4484868;32;34720;-66
2021/06/07 01:43:59;;;;;;;8.45;4.82;;;;;;;25.23;44.10;99839.44;4483531;32;33853;-66
2021/06/07 01:46:27;;;;;;;7.65;4.75;;;;;;;25.24;43.95;99833.75;4484735;32;33512;-65
2021/06/07 01:48:55;;;;;;;8.02;4.90;;;;;;;25.24;43.92;99832.91;4484967;32;34742;-67
2021/06/07 01:51:41;;;;;;;7.57;4.87;;;;;;;25.24;43.85;99835.66;4484394;32;35571;-64
2021/06/07 01:54:27;;;;;;;8.25;4.95;;;;;;;25.23;43.99;99836.69;4484289;32;34174;-66
2021/06/07 01:57:13;;;;;;;8.77;4.53;;;;;;;25.21;44.04;99839.66;4483288;32;35649;-66
2021/06/07 02:00:00;;;;;;;7.53;5.35;;;;;;;25.22;43.95;99840.50;4484550;32;34721;-66
2021/06/07 02:02:46;;;;;;;6.40;4.75;;;;;;;25.21;44.02;99834.22;4484306;32;34631;-66
2021/06/07 02:05:23;;;;;;;7.93;4.75;;;;;;;25.21;44.01;99833.37;4484348;32;33664;-66
2021/06/07 02:07:54;;;;;;;7.45;4.70;;;;;;;25.22;44.08;99833.13;4484357;32;34763;-67
2021/06/07 02:10:24;;;;;;;8.65;5.00;;;;;;;25.21;44.14;99833.37;4484325;32;34324;-66
2021/06/07 02:12:51;;;;;;;9.52;5.10;;;;;;;25.21;44.12;99836.13;4484459;32;34478;-66
2021/06/07 02:15:19;;;;;;;10.38;5.07;;;;;;;25.21;44.11;99834.22;4484295;32;34084;-66
2021/06/07 02:17:47;;;;;;;11.90;4.60;;;;;;;25.21;44.13;99830.66;4484519;32;34587;-66
2021/06/07 02:20:16;;;;;;;9.80;5.10;;;;;;;25.21;44.02;99836.13;4484412;32;34833;-66
2021/06/07 02:22:45;;;;;;;8.05;4.78;;;;;;;25.19;43.93;99834.47;4484288;32;34841;-66
2021/06/07 02:25:16;;;;;;;9.63;4.55;;;;;;;25.19;43.86;99834.47;4484438;32;33271;-67
2021/06/07 02:27:44;;;;;;;6.45;4.72;;;;;;;25.19;43.93;99837.19;4484582;32;33836;-67
2021/06/07 02:30:17;;;;;;;8.35;5.07;;;;;;;25.19;44.01;99831.72;4484190;32;34863;-67
2021/06/07 02:32:44;;;;;;;8.57;4.60;;;;;;;25.19;44.02;99834.47;4484250;32;34006;-64
2021/06/07 02:35:13;;;;;;;8.93;5.45;;;;;;;25.20;43.99;99835.28;4484471;32;33594;-67
2021/06/07 02:37:41;;;;;;;6.37;4.72;;;;;;;25.19;44.02;99836.38;4484077;32;34577;-66
2021/06/07 02:40:10;;;;;;;11.73;4.55;;;;;;;25.20;43.99;99840.75;4484258;32;33818;-66
2021/06/07 02:42:38;;;;;;;8.30;4.55;;;;;;;25.19;44.01;99839.91;4484027;31;34042;-67
2021/06/07 02:45:08;;;;;;;6.97;4.80;;;;;;;25.21;44.10;99839.66;4482994;32;33540;-66
2021/06/07 02:47:36;;;;;;;;;;;;;;;25.20;44.20;99838.03;4484593;32;33919;-66
2021/06/07 02:50:06;;;;;;;9.07;4.75;;;;;;;25.30;43.93;99837.41;4484528;32;34209;-67
2021/06/07 02:52:34;;;;;;;8.90;4.93;;;;;;;25.21;44.05;99842.41;4484463;32;35077;-66
2021/06/07 02:55:02;;;;;;;9.98;5.40;;;;;;;25.21;44.09;99833.37;4484128;32;33309;-65
2021/06/07 02:57:30;;;;;;;6.90;5.20;;;;;;;25.20;44.12;99832.56;4484038;32;34643;-67
2021/06/07 02:59:57;;;;;;;7.60;5.07;;;;;;;25.19;44.09;99836.38;4484270;32;33090;-65
2021/06/07 03:02:25;;;;;;;9.30;5.28;;;;;;;25.18;44.15;99838.25;4483484;32;33571;-67
2021/06/07 03:04:53;;;;;;;6.65;4.80;;;;;;;25.20;44.07;99843.47;4483978;32;33155;-64
2021/06/07 03:07:20;;;;;;;9.57;5.62;;;;;;;25.18;44.07;99843.72;4484315;32;33662;-66
2021/06/07 03:09:48;;;;;;;8.05;4.87;;;;;;;25.20;44.00;99848.94;4484025;32;33978;-65
2021/06/07 03:12:16;;;;;;;8.63;5.32;;;;;;;25.19;44.03;99850.84;4484077;32;33738;-65
2021/06/07 03:14:43;;;;;;;7.45;4.95;;;;;;;25.18;44.05;99846.47;4483981;32;34281;-67
2021/06/07 03:17:11;;;;;;;8.30;5.12;;;;;;;25.18;44.03;99846.47;4483926;32;33796;-65
2021/06/07 03:19:39;;;;;;;6.87;4.93;;;;;;;25.17;44.19;99844.78;4484061;32;33803;-66
2021/06/07 03:22:06;;;;;;;6.78;4.70;;;;;;;25.19;44.15;99852.75;4483857;32;33905;-66
2021/06/07 03:24:34;;;;;;;7.78;4.70;;;;;;;25.18;44.08;99854.66;4484022;32;34273;-68
2021/06/07 03:27:03;;;;;;;9.35;5.57;;;;;;;25.18;44.01;99856.53;4483574;32;34562;-67
2021/06/07 03:29:30;;;;;;;7.18;5.22;;;;;;;25.18;43.92;99862.84;4483982;32;35162;-67
2021/06/07 03:31:58;;;;;;;10.48;4.93;;;;;;;25.19;43.88;99864.50;4483923;32;33585;-67
2021/06/07 03:34:26;;;;;;;8.68;4.72;;;;;;;25.18;43.98;99856.53;4483807;32;34163;-66
2021/06/07 03:37:11;;;;;;;7.35;4.47;;;;;;;25.18;43.96;99860.09;4484137;32;33639;-66
2021/06/07 03:39:40;;;;;;;7.72;4.80;;;;;;;25.18;43.89;99867.44;4482534;32;33483;-66
2021/06/07 03:42:08;;;;;;;7.50;4.85;;;;;;;25.18;43.89;99868.31;4483704;32;35165;-67
2021/06/07 03:44:36;;;;;;;9.43;5.03;;;;;;;25.17;43.97;99863.87;4483776;32;34398;-66
2021/06/07 03:47:04;;;;;;;8.65;5.53;;;;;;;25.18;44.08;99871.03;4482221;32;33509;-66
2021/06/07 03:49:31;;;;;;;7.95;5.15;;;;;;;25.18;44.03;99859.25;4484004;32;34066;-67
2021/06/07 03:51:59;;;;;;;9.18;5.37;;;;;;;25.17;43.97;99863.87;4483684;32;33895;-66
2021/06/07 03:54:26;;;;;;;8.60;4.97;;;;;;;25.17;43.94;99852.12;4483493;32;33299;-66
2021/06/07 03:56:54;;;;;;;7.65;5.15;;;;;;;25.19;43.91;99860.94;4483495;32;34825;-65
2021/06/07 03:59:22;;;;;;;7.05;4.70;;;;;;;25.18;43.85;99859.25;4483611;32;33850;-66
2021/06/07 04:01:49;;;;;;;7.72;4.72;;;;;;;25.18;43.90;99854.66;4483365;32;33951;-67
2021/06/07 04:04:17;;;;;;;6.47;4.60;;;;;;;25.19;43.81;99853.56;4483582;32;33257;-65
2021/06/07 04:06:45;;;;;;;8.30;5.10;;;;;;;25.19;43.86;99858.22;4483495;32;33838;-67
2021/06/07 04:09:12;;;;;;;6.70;4.85;;;;;;;25.18;43.85;99857.38;4483333;32;33628;-66
2021/06/07 04:11:40;;;;;;;8.60;4.80;;;;;;;25.17;43.85;99847.50;4483311;32;34259;-67
2021/06/07 04:14:08;;;;;;;11.15;5.50;;;;;;;25.18;43.83;99854.66;4483697;32;33581;-67
2021/06/07 04:16:35;;;;;;;8.88;5.12;;;;;;;25.17;43.86;99850.22;4485082;32;33736;-65
2021/06/07 04:19:04;;;;;;;8.55;5.37;;;;;;;25.18;43.89;99856.53;4485271;32;33794;-66
2021/06/07 04:21:31;;;;;;;13.73;5.40;;;;;;;25.17;43.82;99858.41;4485129;32;34379;-66
2021/06/07 04:23:59;;;;;;;12.48;5.07;;;;;;;25.16;43.85;99847.75;4485014;32;33491;-67
2021/06/07 04:26:26;;;;;;;8.45;5.28;;;;;;;25.17;43.89;99850.22;4485246;32;33876;-67
2021/06/07 04:28:54;;;;;;;8.25;5.12;;;;;;;25.17;43.92;99849.41;4485158;32;33806;-67
2021/06/07 04:31:21;;;;;;;8.05;4.90;;;;;;;25.17;43.96;99854.88;4485049;32;33703;-66
2021/06/07 04:33:49;;;;;;;8.85;5.10;;;;;;;25.16;43.94;99845.84;4485137;32;34095;-66
2021/06/07 04:36:18;;;;;;;8.70;5.32;;;;;;;25.17;43.85;99844.78;4484953;32;33817;-64
2021/06/07 04:38:45;;;;;;;10.02;5.28;;;;;;;25.15;43.77;99849.66;4484989;32;33969;-66
2021/06/07 04:41:13;;;;;;;9.70;5.60;;;;;;;25.15;43.82;99849.66;4484011;31;33919;-66
2021/06/07 04:43:40;;;;;;;9.00;5.45;;;;;;;25.14;43.83;99849.91;4485067;32;33277;-65
2021/06/07 04:46:08;;;;;;;11.27;5.53;;;;;;;25.14;43.86;99853.47;4484909;32;34501;-67
2021/06/07 04:48:37;;;;;;;8.88;5.80;;;;;;;25.14;43.89;99858.09;4485090;32;33925;-67
2021/06/07 04:51:04;;;;;;;7.40;5.60;;;;;;;25.12;43.92;99863.75;4485079;32;33927;-67
2021/06/07 04:53:32;;;;;;;10.45;4.68;;;;;;;25.12;43.91;99866.50;4484982;32;33996;-67
2021/06/07 04:56:00;;;;;;;9.15;5.35;;;;;;;25.11;43.90;99861.28;4485140;32;33807;-67
2021/06/07 04:58:29;;;;;;;7.85;5.40;;;;;;;25.12;43.86;99871.97;4485087;32;33629;-66
2021/06/07 05:01:08;;;;;;;9.57;5.18;;;;;;;25.11;43.86;99864.00;4484819;32;34990;-66
2021/06/07 05:03:36;;;;;;;9.18;5.00;;;;;;;25.12;43.81;99869.22;4484986;32;34098;-68
2021/06/07 05:06:04;;;;;;;28.35;6.72;;;;;;;25.12;43.82;99866.50;4484880;32;34447;-65
2021/06/07 05:08:32;;;;;;;22.02;5.82;;;;;;;25.11;44.01;99867.56;4484969;32;33572;-68
2021/06/07 05:11:00;;;;;;;19.62;5.35;;;;;;;25.11;43.98;99870.31;4484943;32;33473;-67
2021/06/07 05:13:27;;;;;;;19.67;5.68;;;;;;;25.12;44.00;99871.97;4484603;32;33439;-68
2021/06/07 05:15:55;;;;;;;24.48;5.65;;;;;;;25.11;44.13;99872.19;4485003;32;34675;-67
2021/06/07 05:18:23;;;;;;;23.50;5.70;;;;;;;25.11;44.11;99873.03;4484871;32;33792;-67
2021/06/07 05:20:51;;;;;;;23.67;6.40;;;;;;;25.12;44.06;99868.41;4483705;32;34347;-67
2021/06/07 05:23:19;;;;;;;16.52;5.37;;;;;;;25.11;43.96;99875.75;4484811;32;33913;-68
2021/06/07 05:25:48;;;;;;;16.67;5.47;;;;;;;25.11;43.95;99875.75;4484241;32;33717;-68
2021/06/07 05:28:16;;;;;;;12.68;5.60;;;;;;;25.11;43.96;99867.56;4484231;32;34953;-69
2021/06/07 05:30:45;;;;;;;15.82;6.18;;;;;;;25.10;43.98;99874.09;4484546;32;33956;-68
2021/06/07 05:33:13;;;;;;;14.30;5.77;;;;;;;25.09;43.98;99875.19;4484244;32;33286;-68
2021/06/07 05:35:42;;;;;;;14.75;5.78;;;;;;;25.11;43.94;99875.75;4484250;32;33989;-67
2021/06/07 05:38:10;;;;;;;10.68;5.30;;;;;;;25.10;43.95;99878.75;4482308;32;34769;-68
2021/06/07 05:40:38;;;;;;;13.10;5.10;;;;;;;25.11;43.89;99874.94;4484271;32;34575;-69
2021/06/07 05:43:06;;;;;;;14.87;5.60;;;;;;;25.11;43.89;99883.12;4484176;31;33161;-68
2021/06/07 05:45:34;;;;;;;12.30;5.07;;;;;;;25.09;43.90;99879.81;4484288;32;33969;-66
2021/06/07 05:48:03;;;;;;;13.50;5.37;;;;;;;25.10;43.90;99879.56;4484168;32;34664;-68
2021/06/07 05:50:32;;;;;;;15.57;5.20;;;;;;;25.09;43.90;99886.09;4482404;32;34533;-67
2021/06/07 05:53:00;;;;;;;12.57;5.53;;;;;;;25.09;43.86;99883.38;4484072;32;33552;-69
2021/06/07 05:55:31;;;;;;;11.43;5.30;;;;;;;25.09;43.85;99879.81;4481881;32;33708;-67
2021/06/07 05:58:01;;;;;;;13.32;5.07;;;;;;;25.07;43.86;99882.75;4484077;32;33938;-68
2021/06/07 06:00:31;;;;;;;13.07;4.70;;;;;;;25.08;43.84;99883.59;4482102;32;34663;-69
2021/06/07 06:02:59;;;;;;;9.43;5.15;;;;;;;25.08;43.79;99895.34;4484018;32;33315;-67
2021/06/07 06:05:27;;;;;;;12.93;5.82;;;;;;;25.09;43.76;99896.19;4484019;32;34346;-67
2021/06/07 06:07:55;;;;;;;13.07;5.45;;;;;;;25.09;43.79;99888.00;4484066;32;34683;-68
2021/06/07 06:10:23;;;;;;;12.50;5.75;;;;;;;25.08;43.74;99883.59;4484022;32;33689;-69
2021/06/07 06:12:50;;;;;;;13.20;4.90;;;;;;;25.07;43.75;99888.22;4482051;32;33284;-67
2021/06/07 06:15:20;;;;;;;8.30;5.22;;;;;;;25.08;43.74;99889.03;4484205;32;33859;-68
2021/06/07 06:17:48;;;;;;;10.40;4.90;;;;;;;25.07;43.74;99892.81;4484341;32;33715;-69
2021/06/07 06:20:15;;;;;;;15.18;5.50;;;;;;;25.07;43.69;99896.41;4484130;32;33890;-68
2021/06/07 06:22:44;;;;;;;10.15;5.35;;;;;;;25.07;43.70;99901.87;4484030;32;34224;-68
2021/06/07 06:25:13;;;;;;;10.80;4.97;;;;;;;25.07;43.67;99904.59;4484146;32;34507;-68
2021/06/07 06:27:40;;;;;;;9.77;5.18;;;;;;;25.07;43.66;99901.00;4484124;32;35379;-67
2021/06/07 06:30:10;;;;;;;8.05;5.30;;;;;;;25.07;43.66;99907.31;4484305;32;33859;-67
2021/06/07 06:32:38;;;;;;;8.73;5.10;;;;;;;25.06;43.67;99907.53;4484481;32;33319;-69
2021/06/07 06:35:06;;;;;;;9.10;4.97;;;;;;;25.05;43.70;99900.44;4484532;32;34595;-69
2021/06/07 06:37:34;;;;;;;8.75;4.53;;;;;;;25.05;43.72;99903.16;4482991;32;33755;-67
2021/06/07 06:40:04;;;;;;;9.95;5.12;;;;;;;25.06;43.66;99896.63;4484226;32;33934;-69
2021/06/07 06:42:31;;;;;;;8.07;4.75;;;;;;;25.05;43.66;99905.88;4484559;32;34311;-68
2021/06/07 06:44:59;;;;;;;8.93;5.55;;;;;;;25.06;43.64;99900.19;4484194;32;33768;-69
2021/06/07 06:47:27;;;;;;;11.52;5.30;;;;;;;25.06;43.65;99902.09;4484279;32;34445;-68
2021/06/07 06:49:55;;;;;;;9.68;4.93;;;;;;;25.06;43.64;99897.44;4484656;32;34566;-68
2021/06/07 06:52:22;;;;;;;8.77;4.97;;;;;;;25.06;43.61;99902.91;4484039;32;33372;-67
2021/06/07 06:54:50;;;;;;;8.65;5.05;;;;;;;25.05;43.61;99906.72;4484263;32;34640;-68
2021/06/07 06:57:17;;;;;;;8.63;5.37;;;;;;;25.07;43.65;99901.00;4484575;32;34693;-66
2021/06/07 06:59:51;;;;;;;9.75;5.55;;;;;;;25.06;43.67;99902.91;4484035;32;33774;-67
2021/06/07 07:02:19;;;;;;;9.50;4.65;;;;;;;25.06;43.66;99899.34;4484553;32;33976;-68
2021/06/07 07:04:47;;;;;;;8.90;5.00;;;;;;;25.07;43.67;99910.06;4484077;32;33819;-67
2021/06/07 07:07:15;;;;;;;7.50;4.90;;;;;;;25.08;43.63;99914.44;4484083;32;33780;-68
2021/06/07 07:09:43;;;;;;;9.30;5.12;;;;;;;25.08;43.61;99913.62;4483862;32;33798;-68
2021/06/07 07:12:11;;;;;;;10.05;4.65;;;;;;;25.08;43.62;99914.44;4484412;32;34104;-69
2021/06/07 07:14:40;;;;;;;7.07;4.55;;;;;;;25.07;43.73;99912.78;4483494;32;34302;-70
2021/06/07 07:17:07;;;;;;;6.35;4.47;;;;;;;25.09;43.65;99909.84;4483819;32;34968;-69
2021/06/07 07:19:36;;;;;;;8.18;4.90;;;;;;;25.08;43.56;99911.72;4482338;32;33756;-67
2021/06/07 07:22:04;;;;;;;6.82;4.40;;;;;;;25.09;43.52;99907.94;4482784;32;33275;-69
2021/06/07 07:24:32;;;;;;;7.70;5.47;;;;;;;25.11;43.47;99915.88;4483873;32;33887;-68
2021/06/07 07:27:00;;;;;;;6.72;4.93;;;;;;;25.09;43.62;99913.41;4483972;32;33032;-68
2021/06/07 07:29:31;;;;;;;8.63;5.00;;;;;;;25.11;43.51;99919.44;4483790;32;34549;-68
2021/06/07 07:32:00;;;;;;;8.18;4.50;;;;;;;25.11;43.53;99919.44;4484021;32;34527;-68
2021/06/07 07:34:29;;;;;;;7.75;4.45;;;;;;;25.13;43.50;99922.78;4483736;32;33862;-67
2021/06/07 07:37:07;;;;;;;7.25;5.05;;;;;;;25.13;43.46;99922.78;4483969;32;33983;-68
2021/06/07 07:39:39;;;;;;;6.80;4.70;;;;;;;25.14;43.38;99921.72;4484252;32;34548;-68
2021/06/07 07:42:07;;;;;;;8.90;4.53;;;;;;;25.15;43.43;99926.09;4483899;32;32959;-68
2021/06/07 07:44:35;;;;;;;9.88;4.68;;;;;;;25.15;43.36;99928.84;4483942;32;33610;-68
2021/06/07 07:47:05;;;;;;;7.37;4.60;;;;;;;25.15;43.39;99925.28;4483717;32;33809;-68
2021/06/07 07:49:34;;;;;;;8.48;4.20;;;;;;;25.16;43.38;99921.47;4483655;32;34539;-68
2021/06/07 07:52:02;;;;;;;7.53;4.65;;;;;;;25.18;43.26;99930.25;4483810;32;33336;-66
2021/06/07 07:54:31;;;;;;;7.78;4.25;;;;;;;25.17;43.41;99923.13;4483552;32;34729;-67
2021/06/07 07:56:59;;;;;;;8.10;4.40;;;;;;;25.17;43.42;99929.41;4483683;32;33886;-67
2021/06/07 07:59:26;;;;;;;7.87;4.43;;;;;;;25.18;43.34;99930.25;4483648;32;33519;-67
2021/06/07 08:01:54;;;;;;;8.05;4.72;;;;;;;25.19;43.21;99927.31;4483698;32;33312;-68
2021/06/07 08:04:22;;;;;;;6.32;4.15;;;;;;;25.21;43.18;99921.59;4483604;32;33592;-67
2021/06/07 08:06:50;;;;;;;6.00;4.05;;;;;;;25.21;43.17;99923.50;4483649;32;33847;-68
2021/06/07 08:09:17;;;;;;;6.78;4.65;;;;;;;25.21;43.18;99927.06;4483433;32;33851;-68
2021/06/07 08:11:45;;;;;;;7.18;4.45;;;;;;;25.21;43.18;99932.53;4466590;32;34365;-67
2021/06/07 08:14:13;;;;;;;7.45;4.20;;;;;;;25.22;43.16;99922.44;4467831;32;33796;-68
2021/06/07 08:16:41;;;;;;;8.73;4.80;;;;;;;25.24;43.10;99928.50;4467895;32;33834;-67
2021/06/07 08:19:10;;;;;;;10.15;4.22;;;;;;;25.23;43.15;99929.53;4467572;32;34582;-68
2021/06/07 08:21:37;;;;;;;9.23;3.87;;;;;;;25.24;43.13;99936.69;4466433;32;33641;-68
2021/06/07 08:24:05;;;;;;;9.68;4.28;;;;;;;25.24;43.13;99936.69;4467635;32;33952;-68
2021/06/07 08:26:33;;;;;;;6.57;4.60;;;;;;;25.23;43.15;99935.00;4467746;32;33906;-67
2021/06/07 08:29:01;;;;;;;8.45;4.37;;;;;;;25.24;42.99;99931.22;4467672;32;34427;-68
2021/06/07 08:31:29;;;;;;;6.78;4.22;;;;;;;25.22;43.03;99928.72;4467476;32;33911;-68
2021/06/07 08:33:56;;;;;;;7.68;4.22;;;;;;;25.24;42.97;99934.78;4467618;32;34576;-68
2021/06/07 08:36:24;;;;;;;7.25;4.43;;;;;;;25.24;42.91;99933.97;4467522;32;34950;-68
2021/06/07 08:38:52;;;;;;;7.55;4.18;;;;;;;25.24;42.79;99932.06;4467419;32;33790;-68
2021/06/07 08:41:19;;;;;;;6.10;4.18;;;;;;;25.25;42.92;99927.41;4467394;32;33271;-68
2021/06/07 08:43:47;;;;;;;8.57;4.30;;;;;;;25.25;42.85;99921.97;4467185;32;33856;-67
2021/06/07 08:46:21;;;;;;;7.75;4.00;;;;;;;25.24;42.84;99921.12;4467414;32;34487;-68
2021/06/07 08:48:49;;;;;;;6.20;4.05;;;;;;;25.25;42.56;99925.53;4467314;32;33613;-68
2021/06/07 08:51:17;;;;;;;5.60;3.80;;;;;;;25.26;42.40;99929.09;4467097;32;33396;-67
2021/06/07 08:53:46;;;;;;;6.22;3.78;;;;;;;25.27;42.36;99923.38;4467451;32;34608;-68
2021/06/07 08:56:15;;;;;;;7.28;4.10;;;;;;;25.27;42.14;99920.62;4467259;32;33669;-68
2021/06/07 08:58:42;;;;;;;6.03;4.10;;;;;;;25.27;42.02;99926.09;4466792;32;33857;-68
2021/06/07 09:01:10;;;;;;;6.55;3.92;;;;;;;25.29;41.88;99920.44;4467759;32;33301;-67
2021/06/07 09:03:38;;;;;;;6.53;3.55;;;;;;;25.28;41.83;99921.50;4469310;32;33712;-68
2021/06/07 09:06:06;;;;;;;6.97;4.18;;;;;;;25.28;41.77;99924.22;4469171;32;33887;-67
2021/06/07 09:08:38;;;;;;;9.88;3.90;;;;;;;25.28;41.70;99916.87;4469478;32;34846;-67
2021/06/07 09:11:13;;;;;;;9.30;4.03;;;;;;;25.28;41.83;99922.34;4480887;32;33486;-67
2021/06/07 09:13:41;;;;;;;5.57;3.90;;;;;;;25.29;41.97;99915.78;4482097;32;33801;-67
2021/06/07 09:16:10;;;;;;;7.37;4.07;;;;;;;25.28;41.83;99916.03;4480291;32;34818;-69
2021/06/07 09:18:42;;;;;;;6.43;4.10;;;;;;;25.28;41.88;99913.31;4484193;32;34792;-68
2021/06/07 09:21:18;;;;;;;6.28;3.90;;;;;;;25.29;41.92;99909.50;4477689;32;34163;-68
2021/06/07 09:23:49;;;;;;;5.75;3.72;;;;;;;25.29;42.00;99914.97;4482344;32;33765;-68
2021/06/07 09:26:30;;;;;;;6.75;3.58;;;;;;;25.29;41.97;99909.50;4484964;32;33962;-68
2021/06/07 09:28:59;;;;;;;5.85;4.10;;;;;;;25.31;41.95;99912.81;4485062;32;33730;-68
2021/06/07 09:31:29;;;;;;;7.55;4.10;;;;;;;25.28;42.05;99907.84;4484708;32;34216;-68
2021/06/07 09:33:57;;;;;;;7.20;3.97;;;;;;;25.29;42.15;99904.03;4484819;32;34621;-68
2021/06/07 09:36:39;;;;;;;7.05;3.85;;;;;;;25.31;42.13;99902.72;4484045;32;33955;-68
2021/06/07 09:39:24;;;;;;;7.37;3.75;;;;;;;25.31;42.05;99901.87;4484692;32;33793;-68
2021/06/07 09:42:08;;;;;;;7.80;3.72;;;;;;;25.30;42.07;99900.22;4477374;31;33451;-68
2021/06/07 09:44:46;;;;;;;7.95;3.90;;;;;;;25.32;42.03;99909.00;4483293;32;33774;-68
2021/06/07 09:47:25;;;;;;;9.13;3.80;;;;;;;25.32;42.00;99904.41;4484378;32;34623;-68
2021/06/07 09:50:06;;;;;;;7.32;3.90;;;;;;;25.33;41.94;99899.78;4484652;32;34711;-66
2021/06/07 09:52:55;;;;;;;7.45;3.75;;;;;;;25.35;41.82;99903.09;4484780;32;34276;-68
2021/06/07 09:55:24;;;;;;;6.25;3.97;;;;;;;25.35;41.70;99900.34;4484655;32;33481;-65
2021/06/07 09:58:04;;;;;;;9.40;4.32;;;;;;;25.34;41.65;99895.97;4484718;32;33865;-67
2021/06/07 10:00:48;;;;;;;;;;;;;;;25.36;41.63;99893.81;4484605;32;34900;-67
2021/06/07 10:03:19;;;;;;;5.40;3.65;;;;;;;25.47;41.42;99900.38;4484711;32;34049;-68
2021/06/07 10:05:52;;;;;;;5.60;3.87;;;;;;;25.37;41.77;99890.03;4484548;32;33823;-68
2021/06/07 10:08:22;;;;;;;6.75;4.35;;;;;;;25.34;41.68;99898.69;4484501;32;34533;-67
2021/06/07 10:10:51;;;;;;;7.12;4.00;;;;;;;25.33;41.64;99892.41;4484633;32;33772;-66
2021/06/07 10:13:18;;;;;;;7.05;3.95;;;;;;;25.34;41.60;99894.06;4484324;32;34477;-66
2021/06/07 10:15:48;;;;;;;5.70;4.00;;;;;;;25.35;41.47;99886.69;4484393;32;33757;-66
2021/06/07 10:18:17;;;;;;;9.45;4.12;;;;;;;25.33;41.44;99889.69;4483296;32;34878;-66
2021/06/07 10:20:49;;;;;;;8.98;4.95;;;;;;;25.33;41.49;99886.94;4484429;32;33864;-68
2021/06/07 10:23:22;;;;;;;6.22;4.32;;;;;;;25.31;41.29;99889.06;4483237;32;33079;-68
2021/06/07 10:25:51;;;;;;;6.15;4.12;;;;;;;25.31;41.22;99883.59;4484319;32;34630;-68
2021/06/07 10:28:23;;;;;;;6.43;4.55;;;;;;;25.29;41.32;99891.22;4484336;32;34657;-67
2021/06/07 10:30:51;;;;;;;6.30;4.05;;;;;;;25.32;41.33;99887.16;4484271;32;33863;-67
2021/06/07 10:33:23;;;;;;;7.30;4.12;;;;;;;25.33;41.40;99888.84;4483306;32;34059;-67
2021/06/07 10:35:51;;;;;;;6.30;3.80;;;;;;;25.32;41.59;99888.03;4484287;32;33864;-68
2021/06/07 10:38:29;;;;;;;7.95;4.40;;;;;;;25.34;41.68;99890.50;4484138;32;33662;-68
2021/06/07 10:41:16;;;;;;;5.72;3.97;;;;;;;25.34;41.74;99890.50;4484607;32;33789;-68
2021/06/07 10:43:48;;;;;;;7.62;4.10;;;;;;;25.35;41.72;99886.69;4484286;32;33318;-67
2021/06/07 10:46:20;;;;;;;5.37;3.85;;;;;;;25.33;41.82;99894.31;4484636;32;33828;-68
2021/06/07 10:48:52;;;;;;;7.12;4.20;;;;;;;25.34;41.87;99890.50;4484261;32;33820;-67
2021/06/07 10:51:21;;;;;;;8.80;4.10;;;;;;;25.33;41.84;99884.22;4484165;32;34848;-67
2021/06/07 10:53:52;;;;;;;5.67;3.83;;;;;;;25.32;41.90;99881.69;4484518;32;33256;-66
2021/06/07 10:56:26;;;;;;;7.45;3.78;;;;;;;25.33;41.89;99877.94;4484170;32;34492;-67
2021/06/07 10:58:55;;;;;;;6.60;4.12;;;;;;;25.33;41.89;99877.94;4484170;32;33933;-68
2021/06/07 11:01:23;;;;;;;6.45;4.12;;;;;;;25.32;41.85;99876.22;4483994;32;34335;-67
2021/06/07 11:03:58;;;;;;;5.37;3.70;;;;;;;25.32;41.85;99870.78;4483784;32;33423;-68
2021/06/07 11:06:28;;;;;;;5.65;4.18;;;;;;;25.33;41.88;99865.09;4482992;32;33750;-67
2021/06/07 11:09:06;;;;;;;6.93;4.15;;;;;;;25.32;41.86;99863.44;4484239;32;33975;-68
2021/06/07 11:11:44;;;;;;;6.22;3.65;;;;;;;25.35;41.68;99857.47;4484182;32;33668;-68
2021/06/07 11:14:13;;;;;;;6.25;3.75;;;;;;;25.37;41.75;99860.00;4484050;32;33002;-68
2021/06/07 11:16:46;;;;;;;5.62;4.20;;;;;;;25.35;41.80;99853.91;4484029;32;33768;-68
2021/06/07 11:19:16;;;;;;;7.30;4.00;;;;;;;25.35;41.78;99851.19;4484168;32;34838;-68
2021/06/07 11:21:48;;;;;;;;;;;;;;;25.35;41.72;99853.91;4484579;32;33789;-67
2021/06/07 11:24:29;;;;;;;7.12;4.00;;;;;;;25.45;41.44;99846.78;4483466;32;33251;-68
2021/06/07 11:27:34;;;;;;;5.82;3.85;;;;;;;25.38;41.56;99839.81;4483889;32;34637;-68
2021/06/07 11:30:12;;;;;;;6.45;3.97;;;;;;;25.38;41.33;99851.56;4484067;32;33851;-68
2021/06/07 11:32:41;;;;;;;7.70;4.55;;;;;;;25.36;41.44;99847.38;4484050;32;33427;-68
2021/06/07 11:35:42;;;;;;;7.15;3.78;;;;;;;25.35;41.52;99843.00;4483452;32;33180;-68
2021/06/07 11:38:35;;;;;;;5.40;4.20;;;;;;;25.37;41.50;99854.53;4467316;32;33833;-68
2021/06/07 11:41:05;;;;;;;6.47;3.97;;;;;;;25.39;41.61;99860.56;4468116;32;34687;-68
2021/06/07 11:43:45;;;;;;;6.40;4.20;;;;;;;25.37;41.79;99854.53;4468167;32;34920;-67
2021/06/07 11:46:31;;;;;;;6.68;4.10;;;;;;;25.37;41.69;99854.53;4468127;32;34449;-68